Time;durP1;ratioP1;P1;durP2;ratioP2;P2;SDS_P1;SDS_P2;PMS_P1;PMS_P2;Temp;Humidity;BMP_temperature;BMP_pressure;BME280_temperature;BME280_humidity;BME280_pressure;Samples;Min_cycle;Max_cycle;Signal;HPM_P1;HPM_P2
2021/10/04 21:01:25;;;;;;;33.15;18.92;;;;;;;7.02;82.31;101611.99;1783497;78;28081;-78
2021/10/04 21:03:55;;;;;;;39.67;18.87;;;;;;;6.98;82.12;101615.47;1758059;81;20945;-79
2021/10/04 21:06:24;;;;;;;40.12;19.27;;;;;;;6.94;82.25;101620.68;1758413;81;21132;-80
2021/10/04 21:08:51;;;;;;;33.88;17.40;;;;;;;6.91;82.65;101618.07;1756607;81;21133;-78
2021/10/04 21:11:20;;;;;;;34.67;18.17;;;;;;;6.90;83.06;101617.64;1755623;81;21015;-79
2021/10/04 21:13:47;;;;;;;38.85;18.50;;;;;;;6.88;83.68;101614.14;1756835;81;21647;-78
2021/10/04 21:16:13;;;;;;;39.13;18.82;;;;;;;6.85;83.72;101615.43;1756837;81;21073;-78
2021/10/04 21:18:42;;;;;;;45.00;20.27;;;;;;;6.83;83.62;101605.83;1707457;81;20995;-79
2021/10/04 21:21:08;;;;;;;35.30;19.55;;;;;;;6.81;83.93;101608.88;1756320;81;20958;-76
2021/10/04 21:23:35;;;;;;;35.23;19.12;;;;;;;6.77;83.94;101609.31;1756780;81;21054;-79
2021/10/04 21:26:01;;;;;;;41.02;19.25;;;;;;;6.75;83.85;101614.98;1756268;81;21034;-77
2021/10/04 21:28:28;;;;;;;30.43;16.62;;;;;;;6.73;83.96;101615.41;1757964;81;21111;-75
2021/10/04 21:30:55;;;;;;;36.23;18.27;;;;;;;6.68;84.03;101613.22;1757480;81;21120;-77
2021/10/04 21:33:22;;;;;;;34.80;16.75;;;;;;;6.63;84.09;101612.34;1753682;81;20987;-77
2021/10/04 21:35:49;;;;;;;33.53;16.93;;;;;;;6.61;84.38;101615.39;1754824;81;20996;-79
2021/10/04 21:38:15;;;;;;;36.63;17.62;;;;;;;6.57;85.18;101616.23;1754996;81;21086;-79
2021/10/04 21:40:43;;;;;;;31.50;16.00;;;;;;;6.53;85.42;101610.55;1755155;81;20999;-79
2021/10/04 21:43:10;;;;;;;34.88;17.02;;;;;;;6.50;85.39;101610.97;1755191;81;21380;-78
2021/10/04 21:45:36;;;;;;;31.45;15.65;;;;;;;6.47;85.86;101613.59;1755341;81;21011;-81
2021/10/04 21:48:02;;;;;;;41.77;17.40;;;;;;;6.44;86.71;101602.23;1755444;81;21070;-78
2021/10/04 21:50:29;;;;;;;36.45;17.30;;;;;;;6.47;86.32;101610.11;1755421;81;21038;-80
2021/10/04 21:52:56;;;;;;;39.48;17.77;;;;;;;6.47;86.66;101606.19;1756110;81;21026;-81
2021/10/04 21:55:22;;;;;;;37.75;19.55;;;;;;;6.46;86.96;101610.95;1756134;81;21137;-78
2021/10/04 21:57:52;;;;;;;39.92;19.60;;;;;;;6.43;86.95;101607.03;1755968;81;21021;-81
2021/10/04 22:00:39;;;;;;;41.00;18.80;;;;;;;6.41;87.68;101607.02;1757307;81;21630;-80
2021/10/04 22:06:15;;;;;;;33.23;16.48;;;;;;;6.38;88.22;101603.53;1754298;81;21028;-80
2021/10/04 22:11:07;;;;;;;35.35;17.52;;;;;;;6.31;89.41;101617.02;1699347;81;21010;-79
2021/10/04 22:13:35;;;;;;;35.28;15.50;;;;;;;6.28;89.24;101621.81;1748769;82;21070;-79
2021/10/04 22:16:04;;;;;;;40.98;16.97;;;;;;;6.25;90.04;101616.54;1748805;82;21110;-78
2021/10/04 22:18:31;;;;;;;34.55;16.57;;;;;;;6.24;89.82;101616.11;1749181;82;21068;-79
2021/10/04 22:20:59;;;;;;;43.55;18.55;;;;;;;6.22;89.72;101614.36;1708326;84;21818;-77
2021/10/04 22:23:26;;;;;;;43.85;20.50;;;;;;;6.20;90.21;101621.33;1708883;84;22259;-78
2021/10/04 22:25:55;;;;;;;43.33;21.62;;;;;;;6.12;89.94;101621.70;1678344;85;21056;-78
2021/10/04 22:28:23;;;;;;;43.23;20.85;;;;;;;6.05;90.20;101623.00;1708059;84;28272;-79
2021/10/04 22:30:49;;;;;;;39.83;18.48;;;;;;;5.97;91.11;101624.69;1708294;84;21072;-78
2021/10/04 22:33:16;;;;;;;38.78;18.40;;;;;;;5.92;91.38;101626.81;1678380;85;21152;-79
2021/10/04 22:35:43;;;;;;;43.40;18.77;;;;;;;5.89;91.61;101631.59;1708287;84;22107;-80
2021/10/04 22:38:12;;;;;;;38.75;18.90;;;;;;;5.84;91.50;101634.59;1708554;84;21052;-80
2021/10/04 22:40:42;;;;;;;34.30;17.95;;;;;;;5.77;91.76;101634.98;1708274;84;21088;-80
2021/10/04 22:43:09;;;;;;;37.75;17.27;;;;;;;5.70;92.40;101630.58;1678540;85;21682;-79
2021/10/04 22:45:36;;;;;;;38.30;17.05;;;;;;;5.66;92.88;101634.92;1708326;84;21140;-80
2021/10/04 22:48:05;;;;;;;44.03;17.35;;;;;;;5.66;94.35;101634.92;1708096;84;21033;-82
2021/10/04 22:50:33;;;;;;;41.63;17.05;;;;;;;5.64;94.43;101634.03;1678383;85;21105;-81
2021/10/04 22:53:00;;;;;;;31.80;17.50;;;;;;;5.61;94.13;101634.02;1708494;83;21060;-81
2021/10/04 22:55:27;;;;;;;35.95;15.50;;;;;;;5.59;95.55;101634.44;1708240;84;21092;-78
2021/10/04 22:57:53;;;;;;;34.48;17.32;;;;;;;5.58;95.30;101639.20;1678599;85;21145;-77
2021/10/04 23:00:20;;;;;;;38.35;18.27;;;;;;;5.57;96.30;101637.91;1699104;83;21052;-77
2021/10/04 23:02:46;;;;;;;40.12;18.95;;;;;;;5.55;96.23;101633.09;1675503;85;21037;-79
2021/10/04 23:05:13;;;;;;;40.70;18.92;;;;;;;5.53;95.82;101637.44;1679617;85;21351;-78
2021/10/04 23:07:39;;;;;;;36.83;17.02;;;;;;;5.48;96.12;101628.25;1648264;86;21061;-76
2021/10/04 23:10:07;;;;;;;38.67;18.00;;;;;;;5.44;96.12;101633.87;1679936;85;21166;-79
2021/10/04 23:12:33;;;;;;;38.78;17.05;;;;;;;5.41;96.40;101638.22;1648548;87;21092;-77
2021/10/04 23:15:00;;;;;;;37.10;17.42;;;;;;;5.36;96.90;101626.82;1679965;85;21568;-76
2021/10/04 23:17:27;;;;;;;39.60;18.57;;;;;;;5.33;96.99;101626.37;1650232;87;21093;-77
2021/10/04 23:19:53;;;;;;;29.35;16.23;;;;;;;5.33;97.80;101626.81;1648404;87;21041;-78
2021/10/04 23:22:20;;;;;;;36.48;19.25;;;;;;;5.30;97.53;101626.80;1680185;85;21142;-82
2021/10/04 23:24:46;;;;;;;41.83;17.27;;;;;;;5.28;97.86;101631.13;1650210;87;21172;-83
2021/10/04 23:27:12;;;;;;;32.05;16.80;;;;;;;5.23;98.33;101631.95;1677251;85;21053;-81
2021/10/04 23:29:40;;;;;;;36.20;17.70;;;;;;;5.23;98.69;101634.56;1677420;85;21135;-82
2021/10/04 23:32:07;;;;;;;34.03;17.52;;;;;;;5.22;99.07;101634.55;1677364;85;21056;-82
2021/10/04 23:34:34;;;;;;;36.38;17.48;;;;;;;5.22;99.42;101632.83;1677090;85;21147;-81
2021/10/04 23:37:00;;;;;;;30.27;17.27;;;;;;;5.22;99.20;101638.05;1677372;85;21163;-81
2021/10/04 23:39:27;;;;;;;33.80;16.25;;;;;;;5.19;99.51;101640.61;1677435;85;21147;-82
2021/10/04 23:41:53;;;;;;;33.40;16.95;;;;;;;5.17;99.26;101638.41;1677493;85;21523;-83
2021/10/04 23:44:20;;;;;;;30.23;16.90;;;;;;;5.15;99.59;101637.52;1677566;85;21053;-79
2021/10/04 23:46:46;;;;;;;39.60;18.85;;;;;;;5.13;99.76;101639.27;1677277;85;21138;-79
2021/10/04 23:49:12;;;;;;;39.48;17.87;;;;;;;5.12;99.57;101641.42;1677427;85;21486;-81
2021/10/04 23:51:39;;;;;;;36.60;17.70;;;;;;;5.08;99.84;101634.41;1677879;85;21555;-81
2021/10/04 23:54:05;;;;;;;33.20;16.65;;;;;;;5.06;99.74;101640.05;1681044;84;21026;-80
2021/10/04 23:56:33;;;;;;;46.15;19.12;;;;;;;5.05;100.00;101642.23;1681858;82;20886;-81
2021/10/04 23:59:00;;;;;;;33.95;17.45;;;;;;;5.04;100.00;101643.97;1680196;85;22385;-80
